Time;durP1;ratioP1;P1;durP2;ratioP2;P2;SDS_P1;SDS_P2;PMS_P1;PMS_P2;Temp;Humidity;BMP_temperature;BMP_pressure;BME280_temperature;BME280_humidity;BME280_pressure;Samples;Min_cycle;Max_cycle;Signal;HPM_P1;HPM_P2
2023/08/10 00:01:48;;;;;;;2.83;0.80;;;15.00;99.90;;;;;;5027155;28;20029;-72
2023/08/10 00:04:13;;;;;;;1.85;0.95;;;15.00;99.90;;;;;;5010865;28;20053;-72
2023/08/10 00:06:39;;;;;;;2.97;1.13;;;15.00;99.90;;;;;;5009771;28;20208;-75
2023/08/10 00:09:05;;;;;;;1.35;0.52;;;15.00;99.90;;;;;;5028198;28;20044;-71
2023/08/10 00:11:31;;;;;;;2.85;1.05;;;15.00;99.90;;;;;;5027832;28;20040;-72
2023/08/10 00:13:56;;;;;;;2.10;1.23;;;15.00;99.90;;;;;;5027459;28;20029;-74
2023/08/10 00:16:22;;;;;;;5.50;0.75;;;15.00;99.90;;;;;;5028278;28;20393;-74
2023/08/10 00:18:48;;;;;;;1.38;0.63;;;15.00;99.90;;;;;;5027246;28;20079;-74
2023/08/10 00:21:14;;;;;;;3.53;0.85;;;14.90;99.90;;;;;;5010221;28;20436;-73
2023/08/10 00:23:39;;;;;;;5.50;0.77;;;14.90;99.90;;;;;;5009061;28;20030;-72
2023/08/10 00:26:05;;;;;;;2.30;0.80;;;14.90;99.90;;;;;;5027400;28;20021;-73
2023/08/10 00:28:30;;;;;;;5.13;1.02;;;14.90;99.90;;;;;;5027875;28;20485;-73
2023/08/10 00:30:56;;;;;;;1.65;0.70;;;14.80;99.90;;;;;;5027060;28;20065;-73
2023/08/10 00:33:21;;;;;;;2.28;0.70;;;14.80;99.90;;;;;;5028175;28;20500;-72
2023/08/10 00:35:47;;;;;;;1.10;0.47;;;14.80;99.90;;;;;;5026745;28;20512;-72
2023/08/10 00:38:12;;;;;;;6.13;1.10;;;14.80;99.90;;;;;;5010204;28;20033;-73
2023/08/10 00:40:38;;;;;;;1.60;0.82;;;14.70;99.90;;;;;;5026753;28;20041;-74
2023/08/10 00:43:05;;;;;;;2.55;0.93;;;14.70;99.90;;;;;;5027885;28;20025;-71
2023/08/10 00:45:31;;;;;;;2.47;0.82;;;14.70;99.90;;;;;;5026987;28;20045;-72
2023/08/10 00:47:58;;;;;;;3.40;1.10;;;14.60;99.90;;;;;;5026917;28;20038;-73
2023/08/10 00:50:24;;;;;;;6.70;1.25;;;14.60;99.90;;;;;;5027647;28;20033;-73
2023/08/10 00:52:50;;;;;;;1.98;1.27;;;14.60;99.90;;;;;;5026767;28;20041;-73
2023/08/10 00:55:16;;;;;;;5.53;1.23;;;14.50;99.90;;;;;;5009525;28;20043;-71
2023/08/10 00:57:42;;;;;;;2.00;1.05;;;14.40;99.90;;;;;;5023502;28;20046;-74
2023/08/10 01:00:10;;;;;;;3.65;0.98;;;14.40;99.90;;;;;;5027203;28;20037;-75
2023/08/10 01:02:37;;;;;;;1.95;0.75;;;14.30;99.90;;;;;;5027655;28;20041;-73
2023/08/10 01:05:04;;;;;;;7.82;1.08;;;14.30;99.90;;;;;;5009350;28;20393;-72
2023/08/10 01:07:51;;;;;;;2.03;0.88;;;14.20;99.90;;;;;;5027406;28;20045;-72
2023/08/10 01:10:33;;;;;;;4.10;0.70;;;14.20;99.90;;;;;;5002995;28;20108;-72
2023/08/10 01:13:06;;;;;;;1.55;0.80;;;14.10;99.90;;;;;;5026792;28;20102;-72
2023/08/10 01:15:43;;;;;;;2.40;0.95;;;14.10;99.90;;;;;;5027191;28;20120;-74
2023/08/10 01:18:14;;;;;;;3.17;1.00;;;14.00;99.90;;;;;;5026786;28;20046;-73
2023/08/10 01:20:41;;;;;;;2.17;1.00;;;14.00;99.90;;;;;;5018750;28;20124;-73
2023/08/10 01:23:22;;;;;;;1.10;0.80;;;14.00;99.90;;;;;;5027527;28;20037;-73
2023/08/10 01:25:48;;;;;;;4.90;0.98;;;13.90;99.90;;;;;;5020467;28;20032;-73
2023/08/10 01:28:14;;;;;;;3.42;1.02;;;13.90;99.90;;;;;;5021954;28;20033;-73
2023/08/10 01:30:41;;;;;;;2.03;0.88;;;13.80;99.90;;;;;;5025653;28;20029;-75
2023/08/10 01:33:10;;;;;;;4.55;1.10;;;13.80;99.90;;;;;;5007956;28;20038;-72
2023/08/10 01:35:36;;;;;;;7.00;0.93;;;13.80;99.90;;;;;;5026447;28;20034;-73
2023/08/10 01:38:03;;;;;;;4.38;1.25;;;13.80;99.90;;;;;;5011617;28;20041;-72
2023/08/10 01:40:29;;;;;;;2.35;0.93;;;13.70;99.90;;;;;;5031317;28;20056;-74
2023/08/10 01:42:55;;;;;;;6.40;1.70;;;13.70;99.90;;;;;;5029750;28;20420;-72
2023/08/10 01:45:20;;;;;;;2.45;0.98;;;13.70;99.90;;;;;;5030548;28;20068;-74
2023/08/10 01:47:53;;;;;;;2.15;1.23;;;13.70;99.90;;;;;;5029692;28;20037;-74
2023/08/10 01:50:20;;;;;;;2.67;1.05;;;13.70;99.90;;;;;;5031276;28;20029;-71
2023/08/10 01:52:50;;;;;;;4.35;1.27;;;13.70;99.90;;;;;;5012121;28;20025;-73
2023/08/10 01:55:17;;;;;;;7.78;1.20;;;13.70;99.90;;;;;;5012784;28;20107;-71
2023/08/10 01:57:43;;;;;;;4.47;1.33;;;13.70;99.90;;;;;;5026115;28;20041;-73
2023/08/10 02:00:10;;;;;;;3.55;1.15;;;13.70;99.90;;;;;;5030636;28;20519;-74
2023/08/10 02:02:36;;;;;;;5.30;2.08;;;13.70;99.90;;;;;;5030515;28;20041;-73
2023/08/10 02:05:02;;;;;;;4.00;1.85;;;13.70;99.90;;;;;;5029616;28;20044;-73
2023/08/10 02:07:27;;;;;;;4.82;1.98;;;13.70;99.90;;;;;;5030388;28;20040;-73
2023/08/10 02:09:53;;;;;;;2.22;1.20;;;13.60;99.90;;;;;;5011906;28;20060;-72
2023/08/10 02:12:18;;;;;;;8.70;1.15;;;13.60;99.90;;;;;;5030229;28;20091;-74
2023/08/10 02:14:44;;;;;;;2.40;1.13;;;13.60;99.90;;;;;;5029613;28;20117;-74
2023/08/10 02:17:10;;;;;;;4.53;1.60;;;13.60;99.90;;;;;;5030338;28;20382;-73
2023/08/10 02:19:35;;;;;;;8.00;2.20;;;13.50;99.90;;;;;;5022252;28;20037;-73
2023/08/10 02:22:02;;;;;;;3.90;0.98;;;13.50;99.90;;;;;;5029329;28;20033;-72
2023/08/10 02:24:27;;;;;;;5.20;1.80;;;13.50;99.90;;;;;;5030446;28;20092;-72
2023/08/10 02:26:53;;;;;;;3.35;1.27;;;13.50;99.90;;;;;;5010984;28;20029;-72
2023/08/10 02:29:18;;;;;;;3.03;1.55;;;13.50;99.90;;;;;;5030275;28;20049;-73
2023/08/10 02:31:44;;;;;;;2.75;1.40;;;13.50;99.90;;;;;;5029031;28;20032;-74
2023/08/10 02:34:10;;;;;;;4.30;1.33;;;13.50;99.90;;;;;;5030058;28;20687;-71
2023/08/10 02:36:35;;;;;;;3.75;1.67;;;13.50;99.90;;;;;;5012596;28;20109;-72
2023/08/10 02:39:04;;;;;;;2.58;1.00;;;13.50;99.90;;;;;;5028773;28;20029;-72
2023/08/10 02:41:30;;;;;;;4.07;1.48;;;13.50;99.90;;;;;;5011947;28;20045;-72
2023/08/10 02:43:55;;;;;;;5.05;1.50;;;13.50;99.90;;;;;;5028665;28;20029;-73
2023/08/10 02:46:21;;;;;;;5.10;1.10;;;13.50;99.90;;;;;;5025702;28;20032;-73
2023/08/10 02:48:47;;;;;;;2.72;1.15;;;13.50;99.90;;;;;;5028107;28;20026;-73
2023/08/10 02:51:12;;;;;;;3.97;1.30;;;13.50;99.90;;;;;;5012169;28;20032;-74
2023/08/10 02:53:38;;;;;;;7.35;1.83;;;13.50;99.90;;;;;;5012172;28;20038;-74
2023/08/10 02:56:04;;;;;;;2.97;1.70;;;13.50;99.90;;;;;;5006891;28;20217;-73
2023/08/10 02:58:29;;;;;;;5.13;1.52;;;13.50;99.90;;;;;;5008913;28;20041;-72
2023/08/10 03:00:55;;;;;;;3.10;1.38;;;13.50;99.90;;;;;;5028836;28;20033;-71
2023/08/10 03:03:22;;;;;;;4.38;1.60;;;13.40;99.90;;;;;;5053381;23;20131;-71
2023/08/10 03:05:48;;;;;;;5.38;1.80;;;13.40;99.90;;;;;;5027445;28;20033;-70
2023/08/10 03:08:13;;;;;;;4.55;1.50;;;13.40;99.90;;;;;;5047532;28;20081;-70
2023/08/10 03:10:39;;;;;;;2.97;1.48;;;13.40;99.90;;;;;;5029553;28;20028;-70
2023/08/10 03:13:05;;;;;;;3.58;1.50;;;13.40;99.90;;;;;;5016919;28;20037;-70
2023/08/10 03:15:31;;;;;;;6.47;1.23;;;13.30;99.90;;;;;;5011626;28;20033;-69
2023/08/10 03:17:56;;;;;;;4.93;2.45;;;13.30;99.90;;;;;;5010004;28;20124;-70
2023/08/10 03:20:22;;;;;;;4.05;1.73;;;13.30;99.90;;;;;;5029183;28;20033;-73
2023/08/10 03:22:47;;;;;;;5.78;1.90;;;13.30;99.90;;;;;;5010536;28;20037;-71
2023/08/10 03:25:14;;;;;;;5.63;1.88;;;13.30;99.90;;;;;;5028273;28;20153;-72
2023/08/10 03:27:40;;;;;;;6.63;2.20;;;13.30;99.90;;;;;;5009357;28;20038;-72
2023/08/10 03:30:06;;;;;;;5.43;2.50;;;13.30;99.90;;;;;;5029450;28;20037;-71
2023/08/10 03:32:32;;;;;;;4.57;2.35;;;13.30;99.90;;;;;;5003120;28;20096;-71
2023/08/10 03:34:57;;;;;;;4.55;1.80;;;13.30;99.90;;;;;;5009840;28;20480;-71
2023/08/10 03:37:23;;;;;;;6.93;2.53;;;13.30;99.90;;;;;;5011199;28;20048;-72
2023/08/10 03:39:48;;;;;;;6.30;2.30;;;13.30;99.90;;;;;;5001925;28;20109;-71
2023/08/10 03:42:14;;;;;;;7.57;2.03;;;13.30;99.90;;;;;;5025058;28;20045;-71
2023/08/10 03:44:40;;;;;;;3.42;1.98;;;13.30;99.90;;;;;;5024933;28;20048;-74
2023/08/10 03:47:05;;;;;;;7.30;2.30;;;13.40;99.90;;;;;;5010627;28;20037;-71
2023/08/10 03:49:31;;;;;;;5.00;2.08;;;13.40;99.90;;;;;;5002696;28;20144;-71
2023/08/10 03:51:56;;;;;;;5.35;2.17;;;13.40;99.90;;;;;;5026792;28;20026;-70
2023/08/10 03:54:22;;;;;;;9.32;2.33;;;13.40;99.90;;;;;;5010623;28;20044;-71
2023/08/10 03:56:48;;;;;;;6.00;2.65;;;13.50;99.90;;;;;;5027699;28;20032;-71
2023/08/10 03:59:13;;;;;;;4.45;2.20;;;13.50;99.90;;;;;;5003055;28;20030;-69
2023/08/10 04:01:41;;;;;;;5.60;2.17;;;13.60;99.90;;;;;;5027521;28;20049;-71
2023/08/10 04:04:06;;;;;;;6.13;2.58;;;13.60;99.90;;;;;;5010342;28;20025;-71
2023/08/10 04:06:32;;;;;;;5.82;2.33;;;13.70;99.90;;;;;;5028905;28;20087;-70
2023/08/10 04:08:58;;;;;;;6.35;3.15;;;13.70;99.90;;;;;;5026805;28;20056;-72
2023/08/10 04:11:24;;;;;;;7.45;2.50;;;13.70;99.90;;;;;;5007654;28;20034;-73
2023/08/10 04:13:50;;;;;;;5.82;2.50;;;13.80;99.90;;;;;;5005524;28;20057;-71
2023/08/10 04:16:16;;;;;;;3.90;2.10;;;13.80;99.90;;;;;;5023793;28;20061;-70
2023/08/10 04:18:42;;;;;;;6.80;2.45;;;13.80;99.90;;;;;;5024907;28;20037;-71
2023/08/10 04:21:08;;;;;;;4.90;2.15;;;13.90;99.90;;;;;;5010287;28;20040;-71
2023/08/10 04:23:34;;;;;;;5.15;2.38;;;13.90;99.90;;;;;;5010056;28;20025;-71
2023/08/10 04:25:59;;;;;;;4.18;2.60;;;13.90;99.90;;;;;;5027122;28;20404;-70
2023/08/10 04:28:25;;;;;;;4.95;2.42;;;14.00;99.90;;;;;;5009943;28;20053;-71
2023/08/10 04:30:50;;;;;;;4.80;2.30;;;14.00;99.90;;;;;;5026910;28;20065;-71
2023/08/10 04:33:16;;;;;;;5.95;3.00;;;14.10;99.90;;;;;;5009716;28;20037;-71
2023/08/10 04:35:42;;;;;;;6.25;2.83;;;14.00;99.90;;;;;;5008847;28;20034;-71
2023/08/10 04:38:07;;;;;;;5.65;2.97;;;14.10;99.90;;;;;;5027750;28;20039;-70
2023/08/10 04:40:33;;;;;;;9.88;2.80;;;14.10;99.90;;;;;;5027664;28;20499;-71
2023/08/10 04:42:59;;;;;;;7.10;2.83;;;14.10;99.90;;;;;;5008660;28;20037;-71
2023/08/10 04:45:25;;;;;;;6.75;2.58;;;14.20;99.90;;;;;;5009262;28;20068;-70
2023/08/10 04:47:51;;;;;;;4.85;2.83;;;14.20;99.90;;;;;;5024026;28;20103;-70
2023/08/10 04:50:17;;;;;;;5.78;2.92;;;14.20;99.90;;;;;;5027319;28;20040;-69
2023/08/10 04:52:42;;;;;;;4.28;2.47;;;14.30;99.90;;;;;;5027508;28;20029;-70
2023/08/10 04:55:09;;;;;;;5.90;2.83;;;14.30;99.90;;;;;;5030879;28;20041;-72
2023/08/10 04:57:36;;;;;;;7.68;2.88;;;14.40;99.90;;;;;;5001771;28;20134;-69
2023/08/10 05:00:08;;;;;;;4.93;2.33;;;14.40;99.90;;;;;;5007020;28;20052;-71
2023/08/10 05:02:34;;;;;;;9.10;3.30;;;14.40;99.90;;;;;;5007470;28;20045;-70
2023/08/10 05:05:00;;;;;;;7.60;2.70;;;14.50;99.90;;;;;;5019851;28;20040;-70
2023/08/10 05:07:26;;;;;;;5.28;2.67;;;14.50;99.90;;;;;;5024280;28;20049;-72
2023/08/10 05:09:51;;;;;;;5.50;2.25;;;14.60;99.90;;;;;;5005285;28;20041;-72
2023/08/10 05:12:17;;;;;;;5.32;2.30;;;14.60;99.90;;;;;;5008133;28;20049;-71
2023/08/10 05:14:42;;;;;;;7.18;2.20;;;14.70;99.90;;;;;;5007064;28;20045;-71
2023/08/10 05:17:10;;;;;;;6.35;2.65;;;14.70;99.90;;;;;;5008972;28;20045;-70
2023/08/10 05:19:36;;;;;;;4.35;2.05;;;14.80;99.90;;;;;;5008240;28;20081;-72
2023/08/10 05:22:01;;;;;;;4.40;2.00;;;14.90;99.90;;;;;;5003524;28;20069;-70
2023/08/10 05:24:27;;;;;;;3.65;1.55;;;14.90;99.90;;;;;;5008649;28;20038;-71
2023/08/10 05:26:52;;;;;;;5.22;1.75;;;15.00;99.90;;;;;;5024850;28;20100;-70
2023/08/10 05:29:18;;;;;;;8.98;2.10;;;15.10;99.90;;;;;;5026205;28;20033;-70
2023/08/10 05:31:44;;;;;;;4.75;1.75;;;15.10;99.90;;;;;;5024838;28;20531;-70
2023/08/10 05:34:10;;;;;;;3.72;1.88;;;15.20;99.90;;;;;;5003075;28;20061;-71
2023/08/10 05:36:35;;;;;;;6.55;1.70;;;15.30;99.90;;;;;;5023331;28;20487;-70
2023/08/10 05:39:01;;;;;;;8.75;2.95;;;15.30;99.90;;;;;;5007592;28;20149;-71
2023/08/10 05:41:30;;;;;;;6.07;1.65;;;15.40;99.90;;;;;;5007825;28;20485;-70
2023/08/10 05:43:55;;;;;;;5.80;2.38;;;15.50;99.90;;;;;;4999644;28;20036;-70
2023/08/10 05:46:21;;;;;;;2.75;1.50;;;15.60;99.90;;;;;;5008151;28;20022;-72
2023/08/10 05:48:47;;;;;;;4.57;1.95;;;15.60;99.90;;;;;;5023605;28;20037;-71
2023/08/10 05:51:13;;;;;;;3.22;2.00;;;15.70;99.90;;;;;;5008151;28;20025;-71
2023/08/10 05:53:39;;;;;;;5.07;2.03;;;15.70;99.90;;;;;;5022273;28;20037;-71
2023/08/10 05:56:04;;;;;;;4.70;1.90;;;15.70;99.90;;;;;;5024336;28;20048;-72
2023/08/10 05:58:30;;;;;;;6.07;2.20;;;15.70;99.90;;;;;;5024508;28;20128;-70
2023/08/10 06:00:56;;;;;;;4.13;1.83;;;15.70;99.90;;;;;;5007312;28;20075;-71
2023/08/10 06:03:22;;;;;;;3.80;1.80;;;15.60;99.90;;;;;;5008280;28;20033;-71
2023/08/10 06:05:47;;;;;;;3.45;1.77;;;15.50;99.90;;;;;;5018689;28;20091;-72
2023/08/10 06:08:14;;;;;;;3.40;1.70;;;15.50;99.90;;;;;;4997674;28;20026;-70
2023/08/10 06:10:39;;;;;;;4.20;1.90;;;15.60;99.90;;;;;;4999002;28;20045;-70
2023/08/10 06:13:06;;;;;;;5.05;1.92;;;15.70;99.90;;;;;;4996223;28;20546;-70
2023/08/10 06:15:32;;;;;;;5.30;1.70;;;15.80;99.90;;;;;;5010407;28;20069;-72
2023/08/10 06:17:58;;;;;;;3.60;1.75;;;16.00;99.90;;;;;;5014974;28;20475;-69
2023/08/10 06:20:27;;;;;;;3.25;1.83;;;16.40;99.90;;;;;;5016010;28;20080;-72
2023/08/10 06:22:56;;;;;;;4.38;1.33;;;16.60;99.90;;;;;;4988796;28;20063;-72
2023/08/10 06:25:22;;;;;;;3.03;1.40;;;16.80;99.90;;;;;;5017494;28;20034;-70
2023/08/10 06:27:48;;;;;;;2.40;1.23;;;17.00;99.90;;;;;;5000857;28;20507;-71
2023/08/10 06:30:14;;;;;;;4.20;1.17;;;17.20;99.90;;;;;;5017227;28;20038;-72
2023/08/10 06:32:40;;;;;;;3.13;1.13;;;17.30;99.90;;;;;;5015498;28;20042;-71
2023/08/10 06:35:08;;;;;;;3.50;1.27;;;17.40;99.90;;;;;;5000117;28;20117;-71
2023/08/10 06:37:33;;;;;;;3.80;1.35;;;17.60;99.90;;;;;;4999650;28;20045;-71
2023/08/10 06:39:59;;;;;;;1.45;0.80;;;17.60;99.90;;;;;;5014490;28;20104;-72
2023/08/10 06:42:25;;;;;;;11.82;1.27;;;17.90;99.90;;;;;;5021913;28;20132;-72
2023/08/10 06:44:50;;;;;;;7.70;1.00;;;18.30;99.90;;;;;;4998518;28;20099;-72
2023/08/10 06:47:16;;;;;;;2.65;1.27;;;18.70;99.90;;;;;;5014961;28;20103;-72
2023/08/10 06:49:41;;;;;;;2.90;0.70;;;18.90;99.90;;;;;;4998333;28;20095;-76
2023/08/10 06:52:07;;;;;;;2.58;0.80;;;19.30;99.90;;;;;;5018262;28;20041;-72
2023/08/10 06:54:33;;;;;;;4.90;0.70;;;19.90;99.90;;;;;;4999483;28;20377;-72
2023/08/10 06:57:00;;;;;;;1.77;0.60;;;20.70;99.90;;;;;;5014741;28;20042;-71
2023/08/10 06:59:26;;;;;;;3.67;0.63;;;20.90;99.90;;;;;;5018221;28;20096;-72
2023/08/10 07:01:52;;;;;;;1.75;0.70;;;20.70;99.90;;;;;;4997197;28;20045;-70
2023/08/10 07:04:17;;;;;;;3.20;0.60;;;20.40;99.90;;;;;;5015627;28;20060;-71
2023/08/10 07:06:43;;;;;;;2.13;0.73;;;20.20;99.90;;;;;;5019565;28;20026;-71
2023/08/10 07:09:09;;;;;;;0.90;0.52;;;19.80;99.90;;;;;;5005666;28;20096;-70
2023/08/10 07:11:35;;;;;;;2.35;0.52;;;19.60;99.90;;;;;;4993982;28;20036;-70
2023/08/10 07:14:01;;;;;;;1.92;0.90;;;19.30;99.90;;;;;;4998935;28;20038;-71
2023/08/10 07:16:26;;;;;;;1.70;0.70;;;19.00;99.90;;;;;;4998453;28;20032;-71
2023/08/10 07:18:52;;;;;;;8.48;0.73;;;18.80;99.90;;;;;;5015501;28;20500;-71
2023/08/10 07:21:18;;;;;;;2.30;0.88;;;18.60;99.90;;;;;;5017445;28;20041;-71
2023/08/10 07:23:43;;;;;;;2.78;1.25;;;18.40;99.90;;;;;;5025026;28;20057;-69
2023/08/10 07:26:10;;;;;;;4.72;0.90;;;18.30;99.90;;;;;;5015129;28;20564;-70
2023/08/10 07:28:36;;;;;;;4.38;1.10;;;18.20;99.90;;;;;;4997852;28;20045;-72
2023/08/10 07:31:01;;;;;;;3.47;1.25;;;18.10;99.90;;;;;;5019143;28;20029;-74
2023/08/10 07:33:28;;;;;;;1.25;0.90;;;18.00;99.90;;;;;;4997659;28;20045;-71
2023/08/10 07:35:54;;;;;;;2.60;0.93;;;17.90;99.90;;;;;;4994575;28;20099;-72
2023/08/10 07:38:19;;;;;;;2.47;0.95;;;17.90;99.90;;;;;;5004203;28;20054;-70
2023/08/10 07:40:45;;;;;;;2.13;1.00;;;17.90;99.90;;;;;;5018161;28;20069;-72
2023/08/10 07:43:11;;;;;;;2.90;1.30;;;17.80;99.90;;;;;;5000240;28;20057;-70
2023/08/10 07:45:36;;;;;;;3.30;1.05;;;17.80;99.90;;;;;;5009741;28;20042;-70
2023/08/10 07:48:02;;;;;;;6.53;1.55;;;17.80;99.90;;;;;;5015862;28;20096;-71
2023/08/10 07:50:28;;;;;;;3.08;1.23;;;17.80;99.90;;;;;;4993070;28;20038;-70
2023/08/10 07:52:54;;;;;;;2.45;1.25;;;17.80;99.90;;;;;;5004149;28;20053;-71
2023/08/10 07:55:19;;;;;;;4.72;1.40;;;17.80;99.90;;;;;;4999925;28;20037;-71
2023/08/10 07:57:45;;;;;;;4.47;1.08;;;17.80;99.90;;;;;;4994849;28;20072;-73
2023/08/10 08:00:11;;;;;;;6.60;1.70;;;17.90;99.90;;;;;;4994434;28;20249;-71
2023/08/10 08:02:37;;;;;;;4.60;1.10;;;17.90;99.90;;;;;;5001045;28;20049;-72
2023/08/10 08:05:04;;;;;;;2.80;0.98;;;17.90;99.90;;;;;;4999661;28;20047;-71
2023/08/10 08:07:32;;;;;;;2.72;1.25;;;17.90;99.90;;;;;;4995410;28;20068;-72
2023/08/10 08:09:58;;;;;;;1.67;0.82;;;18.00;99.90;;;;;;4992957;28;20038;-71
2023/08/10 08:12:26;;;;;;;3.38;1.15;;;18.10;99.90;;;;;;5016711;28;20064;-72
2023/08/10 08:14:52;;;;;;;3.33;1.20;;;18.10;99.90;;;;;;5003616;28;20029;-72
2023/08/10 08:17:18;;;;;;;2.70;1.13;;;18.20;99.90;;;;;;5002938;28;20128;-72
2023/08/10 08:19:43;;;;;;;2.92;1.13;;;18.40;99.90;;;;;;5017232;28;20179;-71
2023/08/10 08:22:10;;;;;;;3.25;1.73;;;18.50;99.90;;;;;;5017856;28;20026;-70
2023/08/10 08:24:35;;;;;;;6.28;2.00;;;18.60;99.90;;;;;;5016595;28;20046;-72
2023/08/10 08:27:01;;;;;;;3.85;2.05;;;18.70;99.90;;;;;;4996593;28;20037;-72
2023/08/10 08:29:26;;;;;;;3.58;1.77;;;18.90;99.90;;;;;;5013776;28;20120;-71
2023/08/10 08:31:52;;;;;;;7.30;1.98;;;19.10;99.90;;;;;;4995791;28;20374;-71
2023/08/10 08:34:17;;;;;;;6.25;2.90;;;19.30;99.90;;;;;;5014291;28;20120;-70
2023/08/10 08:36:44;;;;;;;5.00;2.22;;;19.40;99.90;;;;;;4998648;28;20113;-70
2023/08/10 08:39:10;;;;;;;6.10;2.60;;;19.60;99.90;;;;;;5015253;28;20034;-70
2023/08/10 08:41:38;;;;;;;5.57;2.60;;;19.60;99.90;;;;;;4995186;28;20037;-72
2023/08/10 08:44:08;;;;;;;5.15;2.53;;;19.70;99.90;;;;;;4995740;28;20454;-71
2023/08/10 08:46:38;;;;;;;4.93;2.70;;;19.80;99.90;;;;;;4999111;28;20184;-70
2023/08/10 08:49:05;;;;;;;7.63;2.70;;;19.90;99.90;;;;;;4995489;28;20033;-71
2023/08/10 08:51:31;;;;;;;5.80;2.33;;;19.90;99.90;;;;;;4997340;28;20033;-71
2023/08/10 08:54:01;;;;;;;6.72;2.67;;;20.00;99.90;;;;;;4995622;28;20041;-70
2023/08/10 08:56:27;;;;;;;4.28;2.20;;;20.20;99.90;;;;;;5016448;28;20038;-72
2023/08/10 08:58:53;;;;;;;6.35;2.70;;;20.20;99.90;;;;;;5012438;28;20034;-70
2023/08/10 09:01:20;;;;;;;16.65;2.25;;;20.30;99.90;;;;;;5018523;28;20034;-70
2023/08/10 09:03:47;;;;;;;3.65;1.67;;;20.30;99.90;;;;;;4999607;28;20471;-71
2023/08/10 09:06:13;;;;;;;5.00;1.92;;;20.50;99.90;;;;;;5012440;28;20026;-71
2023/08/10 09:08:39;;;;;;;5.43;2.30;;;20.50;99.90;;;;;;4998427;28;20417;-71
2023/08/10 09:11:05;;;;;;;7.38;2.25;;;20.60;99.90;;;;;;4998275;28;20038;-70
2023/08/10 09:13:31;;;;;;;10.02;3.00;;;20.70;99.90;;;;;;4998732;28;20088;-70
2023/08/10 09:16:26;;;;;;;8.25;2.60;;;20.90;99.90;;;;;;4994716;28;20037;-70
2023/08/10 09:18:52;;;;;;;9.80;2.05;;;21.00;99.90;;;;;;5001022;28;20600;-72
2023/08/10 09:21:19;;;;;;;4.75;1.85;;;21.20;99.90;;;;;;5020763;28;20050;-71
2023/08/10 09:23:48;;;;;;;7.28;2.40;;;21.30;99.90;;;;;;5015305;28;20041;-70
2023/08/10 09:26:16;;;;;;;6.57;2.40;;;21.40;99.90;;;;;;4996785;28;20497;-70
2023/08/10 09:28:42;;;;;;;5.70;2.22;;;21.50;99.90;;;;;;4987114;28;20053;-71
2023/08/10 09:31:10;;;;;;;8.30;2.35;;;21.50;99.90;;;;;;5002510;28;20034;-70
2023/08/10 09:33:37;;;;;;;6.20;2.35;;;21.50;99.90;;;;;;5006476;28;20405;-70
2023/08/10 09:36:05;;;;;;;4.55;2.20;;;21.60;99.90;;;;;;4994551;28;20049;-70
2023/08/10 09:38:32;;;;;;;5.72;1.52;;;21.60;99.90;;;;;;5005956;28;20037;-72
2023/08/10 09:41:11;;;;;;;4.15;1.30;;;21.60;99.90;;;;;;4980588;28;20105;-71
2023/08/10 09:43:38;;;;;;;6.10;1.53;;;21.70;99.90;;;;;;5012619;28;20038;-71
2023/08/10 09:46:09;;;;;;;3.22;1.50;;;21.80;99.90;;;;;;5005257;28;20277;-71
2023/08/10 09:48:46;;;;;;;4.43;1.85;;;21.80;99.90;;;;;;5001071;28;20041;-70
2023/08/10 09:51:13;;;;;;;3.70;1.27;;;21.90;99.90;;;;;;4992395;28;20069;-72
2023/08/10 09:53:39;;;;;;;4.07;1.33;;;21.90;99.90;;;;;;4994263;28;20041;-71
2023/08/10 09:56:08;;;;;;;4.70;1.50;;;22.00;99.90;;;;;;5018531;28;20048;-71
2023/08/10 09:58:39;;;;;;;5.30;1.30;;;22.10;99.90;;;;;;5003093;28;20041;-71
2023/08/10 10:01:05;;;;;;;2.13;0.88;;;22.10;99.90;;;;;;5003257;28;20168;-72
2023/08/10 10:03:33;;;;;;;4.57;1.70;;;22.20;99.90;;;;;;5020149;28;20132;-70
2023/08/10 10:06:00;;;;;;;2.92;1.60;;;22.20;99.90;;;;;;5013144;28;20204;-72
2023/08/10 10:08:26;;;;;;;3.78;1.23;;;22.30;99.90;;;;;;5017330;28;20041;-72
2023/08/10 10:10:54;;;;;;;3.80;1.35;;;22.30;99.90;;;;;;5005843;28;20215;-72
2023/08/10 10:13:21;;;;;;;3.97;1.30;;;22.30;99.90;;;;;;5009391;28;20437;-72
2023/08/10 10:15:48;;;;;;;2.67;0.93;;;22.30;99.90;;;;;;5010893;28;20052;-71
2023/08/10 10:18:14;;;;;;;2.78;1.02;;;22.30;99.90;;;;;;5011610;28;20134;-73
2023/08/10 10:20:44;;;;;;;1.83;1.13;;;22.40;99.90;;;;;;5002920;28;20144;-72
2023/08/10 10:23:17;;;;;;;3.72;0.80;;;22.40;99.90;;;;;;4986579;28;20066;-71
2023/08/10 10:26:06;;;;;;;2.53;1.33;;;22.40;99.90;;;;;;4993521;28;20884;-74
2023/08/10 10:28:33;;;;;;;2.85;1.30;;;22.40;99.90;;;;;;4999696;28;20152;-70
2023/08/10 10:31:04;;;;;;;3.35;0.70;;;22.40;99.90;;;;;;5013768;28;20208;-72
2023/08/10 10:33:31;;;;;;;3.88;1.17;;;22.40;99.90;;;;;;4995578;28;20605;-72
2023/08/10 10:36:13;;;;;;;3.97;1.20;;;22.30;99.90;;;;;;5000015;28;20055;-71
2023/08/10 10:38:50;;;;;;;2.42;0.95;;;22.20;99.90;;;;;;4998789;28;20049;-71
2023/08/10 10:41:31;;;;;;;3.33;0.80;;;22.30;99.90;;;;;;4991717;28;20138;-71
2023/08/10 10:43:59;;;;;;;3.67;0.80;;;22.40;99.90;;;;;;5017787;28;20504;-71
2023/08/10 10:46:34;;;;;;;1.50;0.90;;;22.40;99.90;;;;;;4997725;28;20400;-71
2023/08/10 10:49:04;;;;;;;1.95;0.77;;;22.50;99.90;;;;;;5013790;28;20044;-72
2023/08/10 10:51:30;;;;;;;1.50;0.52;;;22.40;99.90;;;;;;5012498;28;20545;-70
2023/08/10 10:53:57;;;;;;;3.53;0.70;;;22.30;99.90;;;;;;4990306;28;20061;-72
2023/08/10 10:56:24;;;;;;;0.77;0.38;;;22.20;99.90;;;;;;5015357;28;20126;-71
2023/08/10 10:58:50;;;;;;;1.08;0.50;;;22.30;99.90;;;;;;5022041;28;20121;-72
2023/08/10 11:01:22;;;;;;;2.25;1.15;;;22.20;99.90;;;;;;5013460;28;20172;-72
2023/08/10 11:03:55;;;;;;;2.65;0.68;;;22.20;99.90;;;;;;4999090;28;20052;-71
2023/08/10 11:06:23;;;;;;;1.42;0.43;;;22.10;99.90;;;;;;5014348;28;20038;-71
2023/08/10 11:08:51;;;;;;;1.35;0.75;;;22.00;99.90;;;;;;5011250;28;20036;-70
2023/08/10 11:11:17;;;;;;;3.67;1.05;;;22.00;99.90;;;;;;4998716;28;20088;-71
2023/08/10 11:13:43;;;;;;;3.03;1.13;;;22.10;99.90;;;;;;5021462;28;20033;-71
2023/08/10 11:16:09;;;;;;;6.07;0.90;;;22.00;99.90;;;;;;5005145;28;20029;-71
2023/08/10 11:18:37;;;;;;;3.42;0.70;;;22.10;99.90;;;;;;5017093;28;20040;-72
2023/08/10 11:21:06;;;;;;;3.05;0.73;;;22.20;99.90;;;;;;5018459;28;20130;-69
2023/08/10 11:23:32;;;;;;;1.52;0.65;;;22.20;99.90;;;;;;5001742;28;20029;-70
2023/08/10 11:25:58;;;;;;;1.48;0.60;;;22.40;99.90;;;;;;5004598;28;20045;-70
2023/08/10 11:28:25;;;;;;;4.22;1.00;;;22.40;99.90;;;;;;4998402;28;20648;-69
2023/08/10 11:30:51;;;;;;;0.98;0.43;;;22.50;99.90;;;;;;5016477;28;20033;-70
2023/08/10 11:33:17;;;;;;;2.60;0.90;;;22.60;99.90;;;;;;5027115;28;20385;-70
2023/08/10 11:35:48;;;;;;;4.60;0.60;;;22.70;99.90;;;;;;5017626;28;20787;-72
2023/08/10 11:38:14;;;;;;;1.90;0.70;;;22.80;99.90;;;;;;5020287;28;20405;-71
2023/08/10 11:40:39;;;;;;;3.70;0.88;;;22.80;99.90;;;;;;4996250;28;20059;-71
2023/08/10 11:43:11;;;;;;;2.80;0.60;;;22.90;99.90;;;;;;5011831;28;20381;-72
2023/08/10 11:45:40;;;;;;;1.40;0.40;;;23.00;99.90;;;;;;5017732;28;20052;-71
2023/08/10 11:48:09;;;;;;;2.53;0.90;;;23.00;99.90;;;;;;4990360;28;20029;-72
2023/08/10 11:50:38;;;;;;;1.73;0.70;;;23.00;99.90;;;;;;5011010;28;20068;-71
2023/08/10 11:53:22;;;;;;;1.25;0.63;;;23.00;99.90;;;;;;5016918;28;20092;-72
2023/08/10 11:55:50;;;;;;;1.58;0.90;;;23.00;99.90;;;;;;5018297;28;20048;-71
2023/08/10 11:58:17;;;;;;;3.47;0.90;;;23.10;99.90;;;;;;5014446;28;20338;-71
2023/08/10 12:00:47;;;;;;;2.00;0.60;;;23.10;99.90;;;;;;5017427;28;20099;-71
2023/08/10 12:03:25;;;;;;;;;;;23.00;99.90;;;;;;5019100;28;20494;-71
2023/08/10 12:05:56;;;;;;;3.40;0.40;;;23.00;99.90;;;;;;5003251;28;19956;-72
2023/08/10 12:08:26;;;;;;;3.58;0.63;;;23.10;99.90;;;;;;4999814;28;20045;-71
2023/08/10 12:11:07;;;;;;;3.83;0.70;;;23.10;99.90;;;;;;4995616;28;20075;-72
2023/08/10 12:13:44;;;;;;;3.30;0.50;;;23.20;99.90;;;;;;5011118;28;20500;-71
2023/08/10 12:16:09;;;;;;;1.35;0.50;;;23.20;99.90;;;;;;4995548;28;20034;-71
2023/08/10 12:18:35;;;;;;;1.48;0.52;;;23.20;99.90;;;;;;5019529;28;20118;-72
2023/08/10 12:21:00;;;;;;;3.13;0.50;;;23.30;99.90;;;;;;5010637;28;20840;-71
2023/08/10 12:23:26;;;;;;;1.15;0.40;;;23.40;99.90;;;;;;4997626;28;20100;-71
2023/08/10 12:25:51;;;;;;;2.13;0.68;;;23.40;99.90;;;;;;4996742;28;20104;-71
2023/08/10 12:28:19;;;;;;;1.30;0.43;;;23.40;99.90;;;;;;4994327;28;20040;-72
2023/08/10 12:30:45;;;;;;;1.65;0.70;;;23.40;99.90;;;;;;4999770;28;20121;-71
2023/08/10 12:33:11;;;;;;;3.30;0.50;;;23.50;99.90;;;;;;5013611;28;20124;-71
2023/08/10 12:35:40;;;;;;;1.65;0.52;;;23.60;99.90;;;;;;5009622;28;20034;-71
2023/08/10 12:38:07;;;;;;;1.83;0.70;;;23.60;99.90;;;;;;5002424;28;20798;-72
2023/08/10 12:40:34;;;;;;;3.80;0.82;;;23.50;99.90;;;;;;5018842;28;20025;-71
2023/08/10 12:42:59;;;;;;;1.75;0.60;;;23.50;99.90;;;;;;5012652;28;20033;-72
2023/08/10 12:45:26;;;;;;;2.25;0.98;;;23.40;99.90;;;;;;4997273;28;20049;-71
2023/08/10 12:47:52;;;;;;;1.92;0.98;;;23.40;99.90;;;;;;5014653;28;20034;-72